Impacts METAR Board
IDs:

KMDW - Chicago/Midway Intl, IL, US

Updated at: 2000 UTC 25 Apr 2018
Potential Impact None Slight Moderate High
Time 25/08Z 25/09Z 25/10Z 25/11Z 25/12Z 25/13Z 25/14Z 25/15Z 25/16Z 25/17Z 25/18Z 25/19Z 25/20Z
Temp46 45 45 43 43 46 48 50 52 53 53 52 52
Dewpt33 32 32 33 34 35 34 32 33 32 31 30 32
Altim30.04 30.04 30.05 30.07 30.09 30.10 30.11 30.12 30.11 30.11 30.10 30.09 30.07
VIS10 10 10 10 10 10 10 10 10 10 10 10 10
CIG32 33 33 250 250 -- -- -- -- -- -- -- --
CoverOVCOVCOVCBKNBKNSCTFEWFEWFEWFEWFEWFEWFEW
FltCatVFRVFRVFRVFRVFRVFRVFRVFRVFRVFRVFRVFRVFR
WX--------------------------
WDir3601010103602020204020304050
WSpd15 14 16 11 15 17 14 13 14 13 15 12 13
WGst25 -- -- 21 20 -- 23 -- 21 -- 22 -- --
Raw hourly METARs
KMDW 250753Z 36015G25KT 10SM SCT027 OVC032 08/01 A3004 RMK AO2 SLP171 T00780006
KMDW 250853Z 01014KT 10SM OVC033 07/00 A3004 RMK AO2 SLP174 T00720000 53004
KMDW 250953Z 01016KT 10SM BKN033 OVC250 07/00 A3005 RMK AO2 SLP175 T00720000
KMDW 251053Z 01011G21KT 10SM FEW033 FEW080 BKN250 06/01 A3007 RMK AO2 SLP183 T00610006
KMDW 251153Z 36015G20KT 10SM FEW080 BKN250 06/01 A3009 RMK AO2 SLP191 T00610011 10089 20061 53015
KMDW 251253Z 02017KT 10SM FEW080 SCT250 08/02 A3010 RMK AO2 SLP195 T00780017
KMDW 251353Z 02014G23KT 10SM FEW100 FEW250 09/01 A3011 RMK AO2 PK WND 03026/1315 SLP198 T00890011
KMDW 251453Z 02013KT 10SM FEW100 FEW250 10/00 A3012 RMK AO2 SLP203 T01000000 53012
KMDW 251553Z 04014G21KT 10SM FEW250 11/01 A3011 RMK AO2 SLP198 T01110006
KMDW 251653Z 02013KT 10SM FEW250 12/00 A3011 RMK AO2 SLP199 T01170000
KMDW 251753Z 03015G22KT 10SM FEW250 12/M01 A3010 RMK AO2 SLP194 T01171006 10117 20061 58009
KMDW 251853Z 04012KT 10SM FEW250 11/M01 A3009 RMK AO2 SLP193 T01111011
KMDW 251953Z 05013KT 10SM FEW250 11/00 A3007 RMK AO2 SLP187 T01110000



Page loaded:  20:18 UTC  |   01:18 PM Pacific  |   02:18 PM Mountain  |   03:18 PM Central  |   04:18 PM Eastern

 

ADVISORIES

FORECASTS

FORECASTS

OBSERVATIONS

USER TOOLS

ABOUT US